This is the latest recevied weather packets stored in our database for station/object DB3LD. If no packets are shown the sender has not sent any weather packets the latest 10 day(s).
| Time | Temp. | Humidity | Pressure | Rain* | Wind** | Luminosity | Snow |
|---|---|---|---|---|---|---|---|
| 1777821613 | 22.22° C | 68% | 1007.4 hPa | 0 mm | - | 202 W/m² | - |
| 1777817412 | 23.89° C | 57% | 1008.4 hPa | 0 mm | - | 352 W/m² | - |
| 1777816212 | 24.44° C | 56% | 1008.9 hPa | 0 mm | - | 274 W/m² | - |
| 1777806010 | 22.22° C | 66% | 1010.7 hPa | 0 mm | - | 781 W/m² | - |
| 1777801213 | 19.44° C | 73% | 1011.3 hPa | 0 mm | - | 246 W/m² | - |
| 1777794612 | 16.67° C | 82% | 1011.3 hPa | 0 mm | - | 164 W/m² | - |
| 1777786210 | 12.22° C | 90% | 1011.8 hPa | 0 mm | - | 88 W/m² | - |
| 1777784410 | 11.67° C | 90% | 1011.8 hPa | 0 mm | - | 29 W/m² | - |
| 1777783209 | 11.67° C | 89% | 1011.3 hPa | 0 mm | - | 17 W/m² | - |
| 1777774812 | 13.33° C | 86% | 1012.1 hPa | 0 mm | - | 0 W/m² | - |
| 1777770012 | 13.33° C | 85% | 1013.1 hPa | 0 mm | - | 0 W/m² | - |
| 1777762808 | 11.67° C | 83% | 1013.7 hPa | 0 mm | - | 0 W/m² | - |
| 1777758007 | 13.33° C | 78% | 1014.1 hPa | 0 mm | - | 0 W/m² | - |
| 1777741808 | 23.89° C | 42% | 1013.1 hPa | 0 mm | - | 39 W/m² | - |
| 1777734606 | 25° C | 40% | 1014.3 hPa | 0 mm | - | 216 W/m² | - |
| 1777731006 | 26.11° C | 32% | 1015 hPa | 0 mm | - | 602 W/m² | - |
| 1777725610 | 26.67° C | 34% | 1015.9 hPa | 0 mm | - | 709 W/m² | - |
| 1777705205 | 18.33° C | 57% | 1019.3 hPa | 0 mm | - | 389 W/m² | - |
| 1777695007 | 11.67° C | 72% | 1019.7 hPa | 0 mm | - | 14 W/m² | - |
| 1777693207 | 11.67° C | 72% | 1019.9 hPa | 0 mm | - | 0 W/m² | - |
| 1777690206 | 12.22° C | 69% | 1020.4 hPa | 0 mm | - | 0 W/m² | - |
| 1777687206 | 12.78° C | 68% | 1020.8 hPa | 0 mm | - | 0 W/m² | - |
| 1777686006 | 12.78° C | 68% | 1020.9 hPa | 0 mm | - | 0 W/m² | - |
| 1777684205 | 12.22° C | 70% | 1021.2 hPa | 0 mm | - | 0 W/m² | - |
| 1777663806 | 16.67° C | 58% | 1023.6 hPa | 0 mm | - | 0 W/m² | - |
* Rain latest hour (hover to see other rain measurements)
** Current wind speed in m/s (hover to see current wind gust speed)